sensor_id;sensor_type;location;lat;lon;timestamp;temperature;humidity
41664;DHT22;27353;50.906;7.248;2022-09-09T00:04:27;16.10;99.90
41664;DHT22;27353;50.906;7.248;2022-09-09T00:09:47;16.10;99.90
41664;DHT22;27353;50.906;7.248;2022-09-09T00:14:59;16.10;99.90
41664;DHT22;27353;50.906;7.248;2022-09-09T00:20:02;16.10;99.90
41664;DHT22;27353;50.906;7.248;2022-09-09T00:22:30;16.00;99.90
41664;DHT22;27353;50.906;7.248;2022-09-09T00:25:26;16.00;99.90
41664;DHT22;27353;50.906;7.248;2022-09-09T00:27:54;16.00;99.90
41664;DHT22;27353;50.906;7.248;2022-09-09T00:30:24;15.90;99.90
41664;DHT22;27353;50.906;7.248;2022-09-09T00:32:54;15.90;99.90
41664;DHT22;27353;50.906;7.248;2022-09-09T00:35:35;15.90;99.90
41664;DHT22;27353;50.906;7.248;2022-09-09T00:41:00;15.90;99.90
41664;DHT22;27353;50.906;7.248;2022-09-09T00:43:32;15.90;99.90
41664;DHT22;27353;50.906;7.248;2022-09-09T00:51:38;15.80;99.90
41664;DHT22;27353;50.906;7.248;2022-09-09T00:57:21;15.80;99.90
41664;DHT22;27353;50.906;7.248;2022-09-09T00:59:52;15.80;99.90
41664;DHT22;27353;50.906;7.248;2022-09-09T01:02:37;15.70;99.90
41664;DHT22;27353;50.906;7.248;2022-09-09T01:05:18;15.70;99.90
41664;DHT22;27353;50.906;7.248;2022-09-09T01:07:47;15.70;99.90
41664;DHT22;27353;50.906;7.248;2022-09-09T01:10:34;15.70;99.90
41664;DHT22;27353;50.906;7.248;2022-09-09T01:13:08;15.70;99.90
41664;DHT22;27353;50.906;7.248;2022-09-09T01:15:39;15.70;99.90
41664;DHT22;27353;50.906;7.248;2022-09-09T01:18:11;15.80;99.90
41664;DHT22;27353;50.906;7.248;2022-09-09T01:20:49;15.80;99.90
41664;DHT22;27353;50.906;7.248;2022-09-09T01:24:16;15.90;99.90
41664;DHT22;27353;50.906;7.248;2022-09-09T01:28:54;15.90;99.90
41664;DHT22;27353;50.906;7.248;2022-09-09T01:34:31;15.90;99.90
41664;DHT22;27353;50.906;7.248;2022-09-09T01:37:10;15.90;99.90
41664;DHT22;27353;50.906;7.248;2022-09-09T01:39:37;15.90;99.90
41664;DHT22;27353;50.906;7.248;2022-09-09T01:42:06;15.90;99.90
41664;DHT22;27353;50.906;7.248;2022-09-09T01:44:34;15.90;99.90
41664;DHT22;27353;50.906;7.248;2022-09-09T01:47:01;15.90;99.90
41664;DHT22;27353;50.906;7.248;2022-09-09T01:49:27;15.80;99.90
41664;DHT22;27353;50.906;7.248;2022-09-09T01:51:55;15.80;99.90
41664;DHT22;27353;50.906;7.248;2022-09-09T01:54:22;15.90;99.90
41664;DHT22;27353;50.906;7.248;2022-09-09T01:57:06;15.80;99.90
41664;DHT22;27353;50.906;7.248;2022-09-09T01:59:47;15.80;99.90
41664;DHT22;27353;50.906;7.248;2022-09-09T02:02:18;15.80;99.90
41664;DHT22;27353;50.906;7.248;2022-09-09T02:04:57;15.80;99.90
41664;DHT22;27353;50.906;7.248;2022-09-09T02:07:40;15.80;99.90
41664;DHT22;27353;50.906;7.248;2022-09-09T02:10:21;15.80;99.90
41664;DHT22;27353;50.906;7.248;2022-09-09T02:12:51;15.80;99.90
41664;DHT22;27353;50.906;7.248;2022-09-09T02:15:28;15.80;99.90
41664;DHT22;27353;50.906;7.248;2022-09-09T02:17:57;15.80;99.90
41664;DHT22;27353;50.906;7.248;2022-09-09T02:20:24;15.80;99.90
41664;DHT22;27353;50.906;7.248;2022-09-09T02:22:53;15.90;99.90
41664;DHT22;27353;50.906;7.248;2022-09-09T02:25:21;15.90;99.90
41664;DHT22;27353;50.906;7.248;2022-09-09T02:27:49;15.90;99.90
41664;DHT22;27353;50.906;7.248;2022-09-09T02:30:15;15.90;99.90
41664;DHT22;27353;50.906;7.248;2022-09-09T02:32:42;15.90;99.90
41664;DHT22;27353;50.906;7.248;2022-09-09T02:35:12;15.90;99.90
41664;DHT22;27353;50.906;7.248;2022-09-09T02:37:41;15.90;99.90
41664;DHT22;27353;50.906;7.248;2022-09-09T02:40:10;15.90;99.90
41664;DHT22;27353;50.906;7.248;2022-09-09T02:42:48;15.80;99.90
41664;DHT22;27353;50.906;7.248;2022-09-09T02:45:19;15.90;99.90
41664;DHT22;27353;50.906;7.248;2022-09-09T02:48:18;15.90;99.90
41664;DHT22;27353;50.906;7.248;2022-09-09T02:53:43;15.90;99.90
41664;DHT22;27353;50.906;7.248;2022-09-09T02:56:19;15.90;99.90
41664;DHT22;27353;50.906;7.248;2022-09-09T02:58:46;15.90;99.90
41664;DHT22;27353;50.906;7.248;2022-09-09T03:01:12;15.90;99.90
41664;DHT22;27353;50.906;7.248;2022-09-09T03:03:38;15.90;99.90
41664;DHT22;27353;50.906;7.248;2022-09-09T03:06:05;15.90;99.90
41664;DHT22;27353;50.906;7.248;2022-09-09T03:08:31;15.90;99.90
41664;DHT22;27353;50.906;7.248;2022-09-09T03:10:58;15.90;99.90
41664;DHT22;27353;50.906;7.248;2022-09-09T03:13:24;15.90;99.90
41664;DHT22;27353;50.906;7.248;2022-09-09T03:15:50;15.90;99.90
41664;DHT22;27353;50.906;7.248;2022-09-09T03:18:17;15.90;99.90
41664;DHT22;27353;50.906;7.248;2022-09-09T03:20:42;15.90;99.90
41664;DHT22;27353;50.906;7.248;2022-09-09T03:23:08;15.90;99.90
41664;DHT22;27353;50.906;7.248;2022-09-09T03:25:34;15.90;99.90
41664;DHT22;27353;50.906;7.248;2022-09-09T03:28:01;15.90;99.90
41664;DHT22;27353;50.906;7.248;2022-09-09T03:30:28;15.90;99.90
41664;DHT22;27353;50.906;7.248;2022-09-09T03:32:54;15.90;99.90
41664;DHT22;27353;50.906;7.248;2022-09-09T03:35:20;15.90;99.90
41664;DHT22;27353;50.906;7.248;2022-09-09T03:37:46;15.90;99.90
41664;DHT22;27353;50.906;7.248;2022-09-09T03:40:12;15.90;99.90
41664;DHT22;27353;50.906;7.248;2022-09-09T03:42:39;15.90;99.90
41664;DHT22;27353;50.906;7.248;2022-09-09T03:45:06;15.90;99.90
41664;DHT22;27353;50.906;7.248;2022-09-09T03:47:33;15.80;99.90
41664;DHT22;27353;50.906;7.248;2022-09-09T03:49:58;15.90;99.90
41664;DHT22;27353;50.906;7.248;2022-09-09T03:52:24;15.90;99.90
41664;DHT22;27353;50.906;7.248;2022-09-09T03:54:52;15.90;99.90
41664;DHT22;27353;50.906;7.248;2022-09-09T03:57:19;15.90;99.90
41664;DHT22;27353;50.906;7.248;2022-09-09T03:59:44;15.90;99.90
41664;DHT22;27353;50.906;7.248;2022-09-09T04:02:10;15.90;99.90
41664;DHT22;27353;50.906;7.248;2022-09-09T04:04:36;15.90;99.90
41664;DHT22;27353;50.906;7.248;2022-09-09T04:07:01;15.90;99.90
41664;DHT22;27353;50.906;7.248;2022-09-09T04:09:27;15.90;99.90
41664;DHT22;27353;50.906;7.248;2022-09-09T04:11:53;15.90;99.90
41664;DHT22;27353;50.906;7.248;2022-09-09T04:14:20;15.90;99.90
41664;DHT22;27353;50.906;7.248;2022-09-09T04:16:45;15.90;99.90
41664;DHT22;27353;50.906;7.248;2022-09-09T04:19:12;15.90;99.90
41664;DHT22;27353;50.906;7.248;2022-09-09T04:21:40;15.90;99.90
41664;DHT22;27353;50.906;7.248;2022-09-09T04:24:07;16.00;99.90
41664;DHT22;27353;50.906;7.248;2022-09-09T04:26:34;15.90;99.90
41664;DHT22;27353;50.906;7.248;2022-09-09T04:29:00;16.00;99.90
41664;DHT22;27353;50.906;7.248;2022-09-09T04:31:25;16.00;99.90
41664;DHT22;27353;50.906;7.248;2022-09-09T04:33:51;16.00;99.90
41664;DHT22;27353;50.906;7.248;2022-09-09T04:36:18;15.90;99.90
41664;DHT22;27353;50.906;7.248;2022-09-09T04:38:45;15.90;99.90
41664;DHT22;27353;50.906;7.248;2022-09-09T04:41:11;15.90;99.90
41664;DHT22;27353;50.906;7.248;2022-09-09T04:43:38;15.90;99.90
41664;DHT22;27353;50.906;7.248;2022-09-09T04:46:04;15.90;99.90
41664;DHT22;27353;50.906;7.248;2022-09-09T04:48:29;15.90;99.90
41664;DHT22;27353;50.906;7.248;2022-09-09T04:51:00;15.80;99.90
41664;DHT22;27353;50.906;7.248;2022-09-09T04:53:26;15.80;99.90
41664;DHT22;27353;50.906;7.248;2022-09-09T04:56:10;15.80;99.90
41664;DHT22;27353;50.906;7.248;2022-09-09T04:58:36;15.80;99.90
41664;DHT22;27353;50.906;7.248;2022-09-09T05:01:13;15.70;99.90
41664;DHT22;27353;50.906;7.248;2022-09-09T05:03:39;15.80;99.90
41664;DHT22;27353;50.906;7.248;2022-09-09T05:06:14;15.70;99.90
41664;DHT22;27353;50.906;7.248;2022-09-09T05:08:42;15.70;99.90
41664;DHT22;27353;50.906;7.248;2022-09-09T05:11:37;15.80;99.90
41664;DHT22;27353;50.906;7.248;2022-09-09T05:14:03;15.70;99.90
41664;DHT22;27353;50.906;7.248;2022-09-09T05:16:29;15.70;99.90
41664;DHT22;27353;50.906;7.248;2022-09-09T05:18:55;15.70;99.90
41664;DHT22;27353;50.906;7.248;2022-09-09T05:21:23;15.70;99.90
41664;DHT22;27353;50.906;7.248;2022-09-09T05:23:49;15.70;99.90
41664;DHT22;27353;50.906;7.248;2022-09-09T05:26:18;15.70;99.90
41664;DHT22;27353;50.906;7.248;2022-09-09T05:28:45;15.70;99.90
41664;DHT22;27353;50.906;7.248;2022-09-09T05:31:12;15.70;99.90
41664;DHT22;27353;50.906;7.248;2022-09-09T05:33:38;15.80;99.90
41664;DHT22;27353;50.906;7.248;2022-09-09T05:36:08;15.80;99.90
41664;DHT22;27353;50.906;7.248;2022-09-09T05:38:36;15.80;99.90
41664;DHT22;27353;50.906;7.248;2022-09-09T05:41:02;15.90;99.90
41664;DHT22;27353;50.906;7.248;2022-09-09T05:43:28;15.90;99.90
41664;DHT22;27353;50.906;7.248;2022-09-09T05:46:01;15.90;99.90
41664;DHT22;27353;50.906;7.248;2022-09-09T05:48:32;15.90;99.90
41664;DHT22;27353;50.906;7.248;2022-09-09T05:50:58;15.90;99.90
41664;DHT22;27353;50.906;7.248;2022-09-09T05:53:25;15.90;99.90
41664;DHT22;27353;50.906;7.248;2022-09-09T05:58:27;15.90;99.90
41664;DHT22;27353;50.906;7.248;2022-09-09T06:00:52;15.90;99.90
41664;DHT22;27353;50.906;7.248;2022-09-09T06:03:19;16.00;99.90
41664;DHT22;27353;50.906;7.248;2022-09-09T06:05:57;15.90;99.90
41664;DHT22;27353;50.906;7.248;2022-09-09T06:08:22;15.90;99.90
41664;DHT22;27353;50.906;7.248;2022-09-09T06:10:48;16.00;99.90
41664;DHT22;27353;50.906;7.248;2022-09-09T06:13:14;16.00;99.90
41664;DHT22;27353;50.906;7.248;2022-09-09T06:15:39;16.00;99.90
41664;DHT22;27353;50.906;7.248;2022-09-09T06:18:15;16.00;99.90
41664;DHT22;27353;50.906;7.248;2022-09-09T06:20:43;16.10;99.90
41664;DHT22;27353;50.906;7.248;2022-09-09T06:23:08;16.10;99.90
41664;DHT22;27353;50.906;7.248;2022-09-09T06:25:34;16.10;99.90
41664;DHT22;27353;50.906;7.248;2022-09-09T06:27:59;16.20;99.90
41664;DHT22;27353;50.906;7.248;2022-09-09T06:30:25;16.20;99.90
41664;DHT22;27353;50.906;7.248;2022-09-09T06:32:50;16.30;99.90
41664;DHT22;27353;50.906;7.248;2022-09-09T06:35:16;16.40;99.90
41664;DHT22;27353;50.906;7.248;2022-09-09T06:37:45;16.40;99.90
41664;DHT22;27353;50.906;7.248;2022-09-09T06:40:14;16.50;99.90
41664;DHT22;27353;50.906;7.248;2022-09-09T06:42:40;16.60;99.90
41664;DHT22;27353;50.906;7.248;2022-09-09T06:45:06;16.70;99.90
41664;DHT22;27353;50.906;7.248;2022-09-09T06:47:32;16.80;99.90
41664;DHT22;27353;50.906;7.248;2022-09-09T06:49:58;17.00;99.90
41664;DHT22;27353;50.906;7.248;2022-09-09T06:52:24;17.30;99.90
41664;DHT22;27353;50.906;7.248;2022-09-09T06:54:50;17.50;99.90
41664;DHT22;27353;50.906;7.248;2022-09-09T06:57:15;17.70;99.90
41664;DHT22;27353;50.906;7.248;2022-09-09T06:59:41;17.90;99.90
41664;DHT22;27353;50.906;7.248;2022-09-09T07:02:08;18.20;99.90
41664;DHT22;27353;50.906;7.248;2022-09-09T07:04:33;18.50;99.90
41664;DHT22;27353;50.906;7.248;2022-09-09T07:06:59;18.50;99.90
41664;DHT22;27353;50.906;7.248;2022-09-09T07:09:26;18.40;99.90
41664;DHT22;27353;50.906;7.248;2022-09-09T07:11:52;18.20;99.90
41664;DHT22;27353;50.906;7.248;2022-09-09T07:14:18;18.10;99.90
41664;DHT22;27353;50.906;7.248;2022-09-09T07:16:45;18.10;99.90
41664;DHT22;27353;50.906;7.248;2022-09-09T07:19:12;18.20;99.90
41664;DHT22;27353;50.906;7.248;2022-09-09T07:21:38;18.30;99.90
41664;DHT22;27353;50.906;7.248;2022-09-09T07:24:05;18.40;99.90
41664;DHT22;27353;50.906;7.248;2022-09-09T07:26:36;18.50;99.90
41664;DHT22;27353;50.906;7.248;2022-09-09T07:29:02;18.60;99.90
41664;DHT22;27353;50.906;7.248;2022-09-09T07:31:33;18.70;99.90
41664;DHT22;27353;50.906;7.248;2022-09-09T07:34:00;18.90;99.90
41664;DHT22;27353;50.906;7.248;2022-09-09T07:36:31;18.90;99.90
41664;DHT22;27353;50.906;7.248;2022-09-09T07:39:03;19.40;99.90
41664;DHT22;27353;50.906;7.248;2022-09-09T07:41:40;20.10;99.90
41664;DHT22;27353;50.906;7.248;2022-09-09T07:44:07;21.30;99.90
41664;DHT22;27353;50.906;7.248;2022-09-09T07:46:34;22.50;99.90
41664;DHT22;27353;50.906;7.248;2022-09-09T07:49:00;23.80;99.90
41664;DHT22;27353;50.906;7.248;2022-09-09T07:51:35;24.40;99.90
41664;DHT22;27353;50.906;7.248;2022-09-09T07:54:05;25.70;99.90
41664;DHT22;27353;50.906;7.248;2022-09-09T07:56:32;26.90;97.90
41664;DHT22;27353;50.906;7.248;2022-09-09T07:58:58;25.50;95.80
41664;DHT22;27353;50.906;7.248;2022-09-09T08:01:34;24.90;99.00
41664;DHT22;27353;50.906;7.248;2022-09-09T08:04:06;24.30;99.90
41664;DHT22;27353;50.906;7.248;2022-09-09T08:06:44;23.70;99.90
41664;DHT22;27353;50.906;7.248;2022-09-09T08:09:10;22.60;99.90
41664;DHT22;27353;50.906;7.248;2022-09-09T08:11:37;21.80;99.90
41664;DHT22;27353;50.906;7.248;2022-09-09T08:14:03;20.90;99.90
41664;DHT22;27353;50.906;7.248;2022-09-09T08:16:32;20.20;99.90
41664;DHT22;27353;50.906;7.248;2022-09-09T08:18:58;19.50;99.90
41664;DHT22;27353;50.906;7.248;2022-09-09T08:21:27;19.40;99.90
41664;DHT22;27353;50.906;7.248;2022-09-09T08:23:54;19.20;99.90
41664;DHT22;27353;50.906;7.248;2022-09-09T08:26:25;19.00;99.90
41664;DHT22;27353;50.906;7.248;2022-09-09T08:28:54;18.80;99.90
41664;DHT22;27353;50.906;7.248;2022-09-09T08:31:22;18.60;99.90
41664;DHT22;27353;50.906;7.248;2022-09-09T08:33:48;18.60;99.90
41664;DHT22;27353;50.906;7.248;2022-09-09T08:36:19;18.50;99.90
41664;DHT22;27353;50.906;7.248;2022-09-09T08:38:56;18.60;99.90
41664;DHT22;27353;50.906;7.248;2022-09-09T08:52:02;19.80;99.90
41664;DHT22;27353;50.906;7.248;2022-09-09T08:54:34;19.60;99.90
41664;DHT22;27353;50.906;7.248;2022-09-09T08:57:02;19.90;99.90
41664;DHT22;27353;50.906;7.248;2022-09-09T08:59:29;19.90;99.90
41664;DHT22;27353;50.906;7.248;2022-09-09T09:01:57;20.00;99.90
41664;DHT22;27353;50.906;7.248;2022-09-09T09:07:22;19.60;99.90
41664;DHT22;27353;50.906;7.248;2022-09-09T09:12:25;19.40;99.90
41664;DHT22;27353;50.906;7.248;2022-09-09T09:14:52;19.40;99.90
41664;DHT22;27353;50.906;7.248;2022-09-09T09:17:23;19.50;99.90
41664;DHT22;27353;50.906;7.248;2022-09-09T09:19:49;19.60;99.90
41664;DHT22;27353;50.906;7.248;2022-09-09T09:22:19;19.60;99.90
41664;DHT22;27353;50.906;7.248;2022-09-09T09:24:56;19.50;99.90
41664;DHT22;27353;50.906;7.248;2022-09-09T09:27:31;19.70;99.90
41664;DHT22;27353;50.906;7.248;2022-09-09T09:30:00;19.70;99.90
41664;DHT22;27353;50.906;7.248;2022-09-09T09:32:30;20.50;99.90
41664;DHT22;27353;50.906;7.248;2022-09-09T09:34:59;21.20;99.90
41664;DHT22;27353;50.906;7.248;2022-09-09T09:37:29;22.80;99.90
41664;DHT22;27353;50.906;7.248;2022-09-09T09:39:56;24.50;99.70
41664;DHT22;27353;50.906;7.248;2022-09-09T09:42:22;23.80;99.40
41664;DHT22;27353;50.906;7.248;2022-09-09T09:44:48;23.00;99.90
41664;DHT22;27353;50.906;7.248;2022-09-09T09:47:14;22.10;99.90
41664;DHT22;27353;50.906;7.248;2022-09-09T09:49:52;21.50;99.90
41664;DHT22;27353;50.906;7.248;2022-09-09T09:52:25;20.70;99.90
41664;DHT22;27353;50.906;7.248;2022-09-09T09:54:53;20.40;99.90
41664;DHT22;27353;50.906;7.248;2022-09-09T09:57:24;20.10;99.90
41664;DHT22;27353;50.906;7.248;2022-09-09T10:02:39;19.90;99.90
41664;DHT22;27353;50.906;7.248;2022-09-09T10:07:45;19.90;99.90
41664;DHT22;27353;50.906;7.248;2022-09-09T10:10:25;19.90;99.90
41664;DHT22;27353;50.906;7.248;2022-09-09T10:13:18;20.10;99.90
41664;DHT22;27353;50.906;7.248;2022-09-09T10:21:19;20.00;99.90
41664;DHT22;27353;50.906;7.248;2022-09-09T10:29:24;25.00;97.00
41664;DHT22;27353;50.906;7.248;2022-09-09T10:38:01;24.80;91.90
41664;DHT22;27353;50.906;7.248;2022-09-09T10:40:34;23.10;94.90
41664;DHT22;27353;50.906;7.248;2022-09-09T10:43:41;22.80;96.20
41664;DHT22;27353;50.906;7.248;2022-09-09T10:57:27;20.60;99.90
41664;DHT22;27353;50.906;7.248;2022-09-09T10:59:59;20.50;99.90
41664;DHT22;27353;50.906;7.248;2022-09-09T11:02:31;20.50;99.90
41664;DHT22;27353;50.906;7.248;2022-09-09T11:05:09;20.40;99.90
41664;DHT22;27353;50.906;7.248;2022-09-09T11:07:47;20.20;99.90
41664;DHT22;27353;50.906;7.248;2022-09-09T11:10:38;20.20;99.90
41664;DHT22;27353;50.906;7.248;2022-09-09T11:13:15;20.40;99.90
41664;DHT22;27353;50.906;7.248;2022-09-09T11:15:50;21.00;99.90
41664;DHT22;27353;50.906;7.248;2022-09-09T11:18:21;21.40;99.90
41664;DHT22;27353;50.906;7.248;2022-09-09T11:20:49;21.70;99.90
41664;DHT22;27353;50.906;7.248;2022-09-09T11:23:25;21.80;99.90
41664;DHT22;27353;50.906;7.248;2022-09-09T11:25:57;22.50;99.90
41664;DHT22;27353;50.906;7.248;2022-09-09T11:31:17;23.40;97.70
41664;DHT22;27353;50.906;7.248;2022-09-09T11:42:06;23.50;96.20
41664;DHT22;27353;50.906;7.248;2022-09-09T11:44:32;23.00;97.00
41664;DHT22;27353;50.906;7.248;2022-09-09T11:46:58;22.70;97.80
41664;DHT22;27353;50.906;7.248;2022-09-09T11:49:40;22.20;98.30
41664;DHT22;27353;50.906;7.248;2022-09-09T11:52:22;21.80;99.00
41664;DHT22;27353;50.906;7.248;2022-09-09T11:54:49;21.70;98.90
41664;DHT22;27353;50.906;7.248;2022-09-09T11:57:30;21.50;99.70
41664;DHT22;27353;50.906;7.248;2022-09-09T11:59:57;21.30;99.90
41664;DHT22;27353;50.906;7.248;2022-09-09T12:02:27;21.30;99.90
41664;DHT22;27353;50.906;7.248;2022-09-09T12:05:10;21.00;99.90
41664;DHT22;27353;50.906;7.248;2022-09-09T12:07:41;21.00;99.90
41664;DHT22;27353;50.906;7.248;2022-09-09T12:12:37;20.80;99.90
41664;DHT22;27353;50.906;7.248;2022-09-09T12:17:45;20.70;99.90
41664;DHT22;27353;50.906;7.248;2022-09-09T12:23:10;20.90;99.90
41664;DHT22;27353;50.906;7.248;2022-09-09T12:25:50;21.00;99.90
41664;DHT22;27353;50.906;7.248;2022-09-09T12:31:18;21.40;99.90
41664;DHT22;27353;50.906;7.248;2022-09-09T12:33:47;21.30;99.90
41664;DHT22;27353;50.906;7.248;2022-09-09T12:36:19;21.10;99.90
41664;DHT22;27353;50.906;7.248;2022-09-09T12:38:46;21.10;99.90
41664;DHT22;27353;50.906;7.248;2022-09-09T12:41:27;21.20;99.90
41664;DHT22;27353;50.906;7.248;2022-09-09T12:44:08;21.30;99.90
41664;DHT22;27353;50.906;7.248;2022-09-09T12:46:42;21.10;99.90
41664;DHT22;27353;50.906;7.248;2022-09-09T12:49:26;21.00;99.90
41664;DHT22;27353;50.906;7.248;2022-09-09T12:51:52;20.80;99.90
41664;DHT22;27353;50.906;7.248;2022-09-09T12:54:19;20.80;99.90
41664;DHT22;27353;50.906;7.248;2022-09-09T12:56:46;20.70;99.90
41664;DHT22;27353;50.906;7.248;2022-09-09T12:59:36;20.70;99.90
41664;DHT22;27353;50.906;7.248;2022-09-09T13:02:02;20.40;99.90
41664;DHT22;27353;50.906;7.248;2022-09-09T13:04:27;20.40;99.90
41664;DHT22;27353;50.906;7.248;2022-09-09T13:06:53;20.40;99.90
41664;DHT22;27353;50.906;7.248;2022-09-09T13:09:19;20.60;99.90
41664;DHT22;27353;50.906;7.248;2022-09-09T13:11:53;20.60;99.90
41664;DHT22;27353;50.906;7.248;2022-09-09T13:14:32;20.90;99.90
41664;DHT22;27353;50.906;7.248;2022-09-09T13:17:02;21.20;99.90
41664;DHT22;27353;50.906;7.248;2022-09-09T13:19:38;21.20;99.90
41664;DHT22;27353;50.906;7.248;2022-09-09T13:27:37;20.60;99.90
41664;DHT22;27353;50.906;7.248;2022-09-09T13:30:36;20.50;99.90
41664;DHT22;27353;50.906;7.248;2022-09-09T13:33:17;20.30;99.90
41664;DHT22;27353;50.906;7.248;2022-09-09T13:35:59;20.10;99.90
41664;DHT22;27353;50.906;7.248;2022-09-09T13:38:29;19.90;99.90
41664;DHT22;27353;50.906;7.248;2022-09-09T13:41:00;19.50;99.90
41664;DHT22;27353;50.906;7.248;2022-09-09T13:43:42;19.30;99.90
41664;DHT22;27353;50.906;7.248;2022-09-09T13:46:35;19.30;99.90
41664;DHT22;27353;50.906;7.248;2022-09-09T13:51:39;20.10;99.90
41664;DHT22;27353;50.906;7.248;2022-09-09T13:54:08;20.50;99.90
41664;DHT22;27353;50.906;7.248;2022-09-09T13:56:34;20.80;99.90
41664;DHT22;27353;50.906;7.248;2022-09-09T13:59:01;21.30;99.90
41664;DHT22;27353;50.906;7.248;2022-09-09T14:01:27;21.20;99.90
41664;DHT22;27353;50.906;7.248;2022-09-09T14:03:53;21.00;99.90
41664;DHT22;27353;50.906;7.248;2022-09-09T14:06:19;21.00;99.90
41664;DHT22;27353;50.906;7.248;2022-09-09T14:08:47;21.10;99.90
41664;DHT22;27353;50.906;7.248;2022-09-09T14:11:13;20.80;99.90
41664;DHT22;27353;50.906;7.248;2022-09-09T14:13:39;20.70;99.90
41664;DHT22;27353;50.906;7.248;2022-09-09T14:16:05;20.60;99.90
41664;DHT22;27353;50.906;7.248;2022-09-09T14:18:30;20.60;99.90
41664;DHT22;27353;50.906;7.248;2022-09-09T14:20:56;20.60;99.90
41664;DHT22;27353;50.906;7.248;2022-09-09T14:23:23;20.40;99.90
41664;DHT22;27353;50.906;7.248;2022-09-09T14:25:50;20.40;99.90
41664;DHT22;27353;50.906;7.248;2022-09-09T14:28:16;20.40;99.90
41664;DHT22;27353;50.906;7.248;2022-09-09T14:30:43;20.40;99.90
41664;DHT22;27353;50.906;7.248;2022-09-09T14:33:13;20.30;99.90
41664;DHT22;27353;50.906;7.248;2022-09-09T14:35:39;20.30;99.90
41664;DHT22;27353;50.906;7.248;2022-09-09T14:38:05;20.20;99.90
41664;DHT22;27353;50.906;7.248;2022-09-09T14:40:31;20.20;99.90
41664;DHT22;27353;50.906;7.248;2022-09-09T14:42:57;20.20;99.90
41664;DHT22;27353;50.906;7.248;2022-09-09T14:45:23;20.20;99.90
41664;DHT22;27353;50.906;7.248;2022-09-09T14:47:50;20.30;99.90
41664;DHT22;27353;50.906;7.248;2022-09-09T14:50:17;20.30;99.90
41664;DHT22;27353;50.906;7.248;2022-09-09T14:52:43;20.40;99.90
41664;DHT22;27353;50.906;7.248;2022-09-09T14:55:09;20.40;99.90
41664;DHT22;27353;50.906;7.248;2022-09-09T14:57:34;20.50;99.90
41664;DHT22;27353;50.906;7.248;2022-09-09T15:00:02;20.50;99.90
41664;DHT22;27353;50.906;7.248;2022-09-09T15:02:28;20.40;99.90
41664;DHT22;27353;50.906;7.248;2022-09-09T15:04:55;20.30;99.90
41664;DHT22;27353;50.906;7.248;2022-09-09T15:07:23;20.20;99.90
41664;DHT22;27353;50.906;7.248;2022-09-09T15:09:49;20.20;99.90
41664;DHT22;27353;50.906;7.248;2022-09-09T15:12:15;20.30;99.90
41664;DHT22;27353;50.906;7.248;2022-09-09T15:14:41;20.30;99.90
41664;DHT22;27353;50.906;7.248;2022-09-09T15:17:06;20.30;99.90
41664;DHT22;27353;50.906;7.248;2022-09-09T15:19:32;20.30;99.90
41664;DHT22;27353;50.906;7.248;2022-09-09T15:21:58;20.10;99.90
41664;DHT22;27353;50.906;7.248;2022-09-09T15:24:25;19.90;99.90
41664;DHT22;27353;50.906;7.248;2022-09-09T15:26:52;19.60;99.90
41664;DHT22;27353;50.906;7.248;2022-09-09T15:29:19;19.10;99.90
41664;DHT22;27353;50.906;7.248;2022-09-09T15:31:44;18.50;99.90
41664;DHT22;27353;50.906;7.248;2022-09-09T15:34:11;18.10;99.90
41664;DHT22;27353;50.906;7.248;2022-09-09T15:36:38;17.10;99.90
41664;DHT22;27353;50.906;7.248;2022-09-09T15:39:06;16.30;99.90
41664;DHT22;27353;50.906;7.248;2022-09-09T15:41:33;16.10;99.90
41664;DHT22;27353;50.906;7.248;2022-09-09T15:43:59;16.10;99.90
41664;DHT22;27353;50.906;7.248;2022-09-09T15:48:55;16.30;99.90
41664;DHT22;27353;50.906;7.248;2022-09-09T15:51:22;16.20;99.90
41664;DHT22;27353;50.906;7.248;2022-09-09T15:53:51;16.20;99.90
41664;DHT22;27353;50.906;7.248;2022-09-09T15:56:18;16.20;99.90
41664;DHT22;27353;50.906;7.248;2022-09-09T15:58:44;16.20;99.90
41664;DHT22;27353;50.906;7.248;2022-09-09T16:01:10;16.10;99.90
41664;DHT22;27353;50.906;7.248;2022-09-09T16:03:40;16.10;99.90
41664;DHT22;27353;50.906;7.248;2022-09-09T16:06:08;16.10;99.90
41664;DHT22;27353;50.906;7.248;2022-09-09T16:08:39;16.10;99.90
41664;DHT22;27353;50.906;7.248;2022-09-09T16:11:13;16.10;99.90
41664;DHT22;27353;50.906;7.248;2022-09-09T16:13:41;16.20;99.90
41664;DHT22;27353;50.906;7.248;2022-09-09T16:16:07;16.10;99.90
41664;DHT22;27353;50.906;7.248;2022-09-09T16:18:38;16.10;99.90
41664;DHT22;27353;50.906;7.248;2022-09-09T16:21:04;16.10;99.90
41664;DHT22;27353;50.906;7.248;2022-09-09T16:23:31;16.10;99.90
41664;DHT22;27353;50.906;7.248;2022-09-09T16:25:57;16.10;99.90
41664;DHT22;27353;50.906;7.248;2022-09-09T16:28:23;16.20;99.90
41664;DHT22;27353;50.906;7.248;2022-09-09T16:30:49;16.30;99.90
41664;DHT22;27353;50.906;7.248;2022-09-09T16:33:15;16.20;99.90
41664;DHT22;27353;50.906;7.248;2022-09-09T16:35:41;16.30;99.90
41664;DHT22;27353;50.906;7.248;2022-09-09T16:38:07;16.30;99.90
41664;DHT22;27353;50.906;7.248;2022-09-09T16:40:36;16.40;99.90
41664;DHT22;27353;50.906;7.248;2022-09-09T16:43:05;16.40;99.90
41664;DHT22;27353;50.906;7.248;2022-09-09T16:45:32;16.50;99.90
41664;DHT22;27353;50.906;7.248;2022-09-09T16:47:58;16.60;99.90
41664;DHT22;27353;50.906;7.248;2022-09-09T16:50:24;16.70;99.90
41664;DHT22;27353;50.906;7.248;2022-09-09T16:52:51;16.70;99.90
41664;DHT22;27353;50.906;7.248;2022-09-09T16:55:17;16.60;99.90
41664;DHT22;27353;50.906;7.248;2022-09-09T16:57:46;16.60;99.90
41664;DHT22;27353;50.906;7.248;2022-09-09T17:00:14;16.70;99.90
41664;DHT22;27353;50.906;7.248;2022-09-09T17:02:40;16.70;99.90
41664;DHT22;27353;50.906;7.248;2022-09-09T17:05:06;16.70;99.90
41664;DHT22;27353;50.906;7.248;2022-09-09T17:07:31;16.70;99.90
41664;DHT22;27353;50.906;7.248;2022-09-09T17:09:57;16.70;99.90
41664;DHT22;27353;50.906;7.248;2022-09-09T17:12:23;16.70;99.90
41664;DHT22;27353;50.906;7.248;2022-09-09T17:14:50;16.70;99.90
41664;DHT22;27353;50.906;7.248;2022-09-09T17:17:16;16.70;99.90
41664;DHT22;27353;50.906;7.248;2022-09-09T17:19:42;16.70;99.90
41664;DHT22;27353;50.906;7.248;2022-09-09T17:22:08;16.60;99.90
41664;DHT22;27353;50.906;7.248;2022-09-09T17:24:34;16.60;99.90
41664;DHT22;27353;50.906;7.248;2022-09-09T17:26:59;16.50;99.90
41664;DHT22;27353;50.906;7.248;2022-09-09T17:29:26;16.50;99.90
41664;DHT22;27353;50.906;7.248;2022-09-09T17:31:52;16.50;99.90
41664;DHT22;27353;50.906;7.248;2022-09-09T17:34:19;16.40;99.90
41664;DHT22;27353;50.906;7.248;2022-09-09T17:36:44;16.30;99.90
41664;DHT22;27353;50.906;7.248;2022-09-09T17:39:10;16.30;99.90
41664;DHT22;27353;50.906;7.248;2022-09-09T17:41:39;16.20;99.90